Time;durP1;ratioP1;P1;durP2;ratioP2;P2;SDS_P1;SDS_P2;PMS_P1;PMS_P2;Temp;Humidity;BMP_temperature;BMP_pressure;BME280_temperature;BME280_humidity;BME280_pressure;Samples;Min_cycle;Max_cycle;Signal;HPM_P1;HPM_P2
2021/11/17 02:27:30;;;;;;;69.07;35.60;;;9.70;99.90;;;9.84;89.16;101831.69;5054127;28;20053;-68
2021/11/17 02:30:23;;;;;;;74.45;37.17;;;9.60;99.90;;;9.78;89.26;101843.06;5056190;28;20049;-68
2021/11/17 02:33:31;;;;;;;76.57;40.05;;;9.60;99.90;;;9.85;89.41;101829.03;5056085;28;20409;-68
2021/11/17 02:36:36;;;;;;;78.85;39.63;;;9.60;99.90;;;9.86;89.09;101836.13;5056041;28;20111;-68
2021/11/17 02:39:49;;;;;;;72.70;37.92;;;9.60;99.90;;;9.67;89.52;101798.84;5055895;28;20045;-68
2021/11/17 02:42:39;;;;;;;71.95;38.10;;;9.60;99.90;;;9.87;89.57;101835.25;5055876;28;20094;-69
2021/11/17 02:45:30;;;;;;;73.80;37.70;;;9.70;99.90;;;9.92;89.12;101841.50;5055794;28;20107;-68
2021/11/17 02:48:25;;;;;;;72.47;38.35;;;9.70;99.90;;;10.02;88.96;101839.88;5054806;28;20045;-68
2021/11/17 02:51:18;;;;;;;75.35;37.90;;;9.80;99.90;;;9.87;88.70;101829.09;5056294;28;20051;-69
2021/11/17 02:54:30;;;;;;;74.88;38.28;;;9.80;99.90;;;9.87;89.09;101822.03;5055707;28;20045;-68
2021/11/17 02:57:20;;;;;;;76.30;38.72;;;9.70;99.90;;;9.98;89.33;101824.84;5054586;28;20061;-68
2021/11/17 03:00:20;;;;;;;73.90;38.85;;;9.70;99.90;;;10.08;89.16;101823.19;5054609;28;20049;-68
2021/11/17 03:03:16;;;;;;;75.00;37.50;;;9.80;99.90;;;9.98;88.87;101815.16;5055541;28;20049;-68
2021/11/17 03:06:15;;;;;;;70.40;36.58;;;9.80;99.90;;;10.12;89.37;101822.41;5055705;28;20041;-69
2021/11/17 03:09:08;;;;;;;76.07;37.67;;;9.90;99.90;;;10.21;88.61;101817.22;5055732;28;20120;-68
2021/11/17 03:12:05;;;;;;;73.75;37.25;;;10.00;99.90;;;10.15;88.57;101814.50;5055569;28;20048;-68
2021/11/17 03:15:14;;;;;;;73.30;37.83;;;9.90;99.90;;;10.03;89.02;101816.09;5055461;28;20122;-69
2021/11/17 03:18:07;;;;;;;77.60;38.47;;;9.80;99.90;;;10.16;89.09;101806.59;5055160;28;20049;-68
2021/11/17 03:21:09;;;;;;;76.15;37.92;;;9.90;99.90;;;10.13;89.05;101803.00;5055151;28;20083;-68
2021/11/17 03:24:00;;;;;;;76.65;38.42;;;9.90;99.90;;;10.14;89.08;101800.41;5055396;28;20136;-68
2021/11/17 03:26:55;;;;;;;71.78;36.65;;;9.90;99.90;;;10.22;89.10;101808.44;5055286;28;20494;-68
2021/11/17 03:29:54;;;;;;;72.45;36.88;;;9.90;99.90;;;10.29;88.87;101794.41;5054982;28;20049;-68
2021/11/17 03:32:55;;;;;;;73.65;37.60;;;10.00;99.90;;;10.35;88.39;101805.97;5054924;28;20041;-69
2021/11/17 03:35:59;;;;;;;69.32;36.67;;;10.10;99.90;;;10.41;87.82;101791.91;5070581;28;20398;-69
2021/11/17 03:38:52;;;;;;;76.95;39.15;;;10.20;99.90;;;10.39;87.80;101785.72;5053729;28;20094;-69
2021/11/17 03:41:42;;;;;;;67.35;35.53;;;10.20;99.90;;;10.28;88.03;101792.66;5054990;28;20107;-68
2021/11/17 03:44:59;;;;;;;71.20;37.67;;;10.10;99.90;;;10.27;88.08;101788.22;5054705;28;20376;-68
2021/11/17 03:47:55;;;;;;;71.57;37.55;;;10.00;99.90;;;10.31;88.12;101788.28;5054596;28;20118;-68
2021/11/17 03:50:54;;;;;;;68.03;35.60;;;10.10;99.90;;;10.21;88.40;101774.91;5054885;28;20053;-68
2021/11/17 03:53:44;;;;;;;75.45;37.95;;;10.10;99.90;;;10.24;88.63;101780.25;5054730;28;20052;-68
2021/11/17 03:56:37;;;;;;;73.60;38.00;;;10.00;99.90;;;10.25;88.67;101782.03;5054529;28;20441;-68
2021/11/17 03:59:29;;;;;;;74.35;38.75;;;10.00;99.90;;;10.22;89.00;101771.41;5054394;28;20045;-69
2021/11/17 04:02:14;;;;;;;71.07;36.83;;;10.00;99.90;;;10.13;89.22;101773.94;5054354;28;20061;-68
2021/11/17 04:05:29;;;;;;;75.65;39.40;;;10.00;99.90;;;10.21;89.21;101773.16;5054313;28;20433;-68
2021/11/17 04:08:20;;;;;;;74.10;37.90;;;10.00;99.90;;;10.04;89.54;101750.91;5046706;28;20063;-69
2021/11/17 04:11:10;;;;;;;;;;;10.00;99.90;;;10.17;89.29;101774.00;5054855;28;20040;-69
2021/11/17 04:13:55;;;;;;;74.70;38.05;;;10.00;99.90;;;10.19;89.69;101777.56;5054702;28;19920;-69
2021/11/17 04:16:48;;;;;;;72.32;38.13;;;10.00;99.90;;;10.07;89.83;101765.88;5054343;28;20053;-68
2021/11/17 04:19:35;;;;;;;81.47;38.83;;;10.00;99.90;;;10.17;90.07;101778.41;5052984;28;20047;-68
2021/11/17 04:22:33;;;;;;;73.93;39.00;;;10.00;99.90;;;10.26;89.87;101771.44;5054560;28;20102;-68
2021/11/17 04:25:27;;;;;;;75.97;38.63;;;10.00;99.90;;;10.22;90.36;101767.00;5053925;28;20051;-68
2021/11/17 04:28:15;;;;;;;75.07;39.65;;;10.00;99.90;;;10.26;90.16;101770.59;5054127;28;20410;-68
2021/11/17 04:31:22;;;;;;;69.75;37.70;;;10.00;99.90;;;10.28;90.25;101776.78;5054127;28;20098;-68
2021/11/17 04:34:55;;;;;;;73.32;38.38;;;10.00;99.90;;;10.30;90.18;101777.69;5020245;28;20399;-68
2021/11/17 04:38:02;;;;;;;76.50;40.17;;;10.10;99.90;;;10.26;90.79;101778.53;5011924;28;20054;-68
2021/11/17 04:40:55;;;;;;;74.00;39.45;;;10.00;99.90;;;10.22;90.35;101764.34;4995266;28;20058;-69
2021/11/17 04:43:56;;;;;;;77.18;39.78;;;10.10;99.90;;;10.29;90.36;101778.53;5053938;28;20033;-68
2021/11/17 04:46:43;;;;;;;73.53;39.53;;;10.10;99.90;;;10.41;90.58;101784.88;5053917;28;20053;-68
2021/11/17 04:49:42;;;;;;;74.32;39.42;;;10.20;99.90;;;10.47;90.35;101781.41;5053338;28;20052;-68
2021/11/17 04:52:42;;;;;;;75.70;40.65;;;10.20;99.90;;;10.39;90.92;101789.25;5053456;28;20379;-68
2021/11/17 04:55:39;;;;;;;73.67;40.00;;;10.20;99.90;;;10.46;90.77;101782.25;5051079;28;20491;-68
2021/11/17 04:58:34;;;;;;;76.22;40.17;;;10.20;99.90;;;10.48;90.92;101784.06;5051712;28;20118;-68
2021/11/17 05:01:42;;;;;;;78.25;41.30;;;10.30;99.90;;;10.46;90.79;101782.25;5053368;28;20091;-68
2021/11/17 05:04:31;;;;;;;76.45;41.22;;;10.20;99.90;;;10.48;91.24;101785.81;5053420;28;20460;-68
2021/11/17 05:07:18;;;;;;;79.15;40.15;;;10.30;99.90;;;10.46;91.54;101787.53;5053242;28;20041;-68
2021/11/17 05:09:59;;;;;;;76.30;41.13;;;10.20;99.90;;;10.49;91.11;101790.25;5053170;28;20049;-67
2021/11/17 05:12:46;;;;;;;80.65;42.47;;;10.30;99.90;;;10.40;91.38;101754.00;5053158;28;20045;-68
2021/11/17 05:15:32;;;;;;;80.57;40.85;;;10.30;99.90;;;10.63;91.30;101775.38;5053437;28;20044;-70
2021/11/17 05:18:16;;;;;;;80.28;41.63;;;10.40;99.90;;;10.61;90.88;101767.44;5052071;28;20478;-70
2021/11/17 05:21:03;;;;;;;77.97;41.97;;;10.40;99.90;;;10.58;91.23;101774.44;5052993;28;20094;-69
2021/11/17 05:23:54;;;;;;;83.57;41.78;;;10.40;99.90;;;10.57;91.42;101770.91;5053561;28;20052;-70
2021/11/17 05:26:41;;;;;;;80.43;40.75;;;10.40;99.90;;;10.55;91.88;101785.00;5052928;28;20040;-69
2021/11/17 05:29:38;;;;;;;83.50;43.95;;;10.40;99.90;;;10.57;91.67;101780.59;5053231;28;20073;-69
2021/11/17 05:32:42;;;;;;;82.45;42.17;;;10.30;99.90;;;10.61;91.91;101783.31;5053226;28;20052;-68
2021/11/17 05:35:30;;;;;;;83.80;42.88;;;10.40;99.90;;;10.44;91.79;101758.44;5052914;28;20045;-68
2021/11/17 05:38:15;;;;;;;88.25;42.97;;;10.40;99.90;;;10.56;91.88;101779.72;5052892;28;20075;-69
2021/11/17 05:41:02;;;;;;;84.85;43.40;;;10.40;99.90;;;10.63;92.06;101781.56;5051849;28;20057;-68
2021/11/17 05:43:49;;;;;;;84.70;42.67;;;10.40;99.90;;;10.53;92.25;101776.19;5053064;28;20056;-68
2021/11/17 05:46:36;;;;;;;84.90;43.13;;;10.30;99.90;;;10.60;92.50;101781.53;5052681;28;20053;-69
2021/11/17 05:49:23;;;;;;;84.55;43.15;;;10.30;99.90;;;10.54;92.19;101760.31;5053068;28;20072;-68
2021/11/17 05:52:22;;;;;;;80.88;41.70;;;10.40;99.90;;;10.71;92.40;101794.84;5053344;28;20114;-69
2021/11/17 05:55:14;;;;;;;87.85;43.55;;;10.40;99.90;;;10.70;92.26;101791.31;5052754;28;20041;-69
2021/11/17 05:58:02;;;;;;;84.45;42.10;;;10.40;99.90;;;10.77;92.38;101786.97;5052713;28;20033;-69
2021/11/17 06:01:20;;;;;;;96.80;44.42;;;10.50;99.90;;;10.77;92.33;101795.81;5052472;28;20048;-69
2021/11/17 06:03:58;;;;;;;87.72;44.05;;;10.50;99.90;;;10.81;92.27;101824.09;5056474;28;20094;-68
2021/11/17 06:06:26;;;;;;;86.25;43.08;;;10.50;99.90;;;10.84;92.05;101792.34;5056515;28;20037;-69
2021/11/17 06:08:55;;;;;;;81.95;43.40;;;10.60;99.90;;;10.81;92.31;101796.72;5056489;28;20041;-69
2021/11/17 06:11:28;;;;;;;83.00;42.85;;;10.50;99.90;;;10.83;92.20;101787.94;5056408;28;20053;-69
2021/11/17 06:13:59;;;;;;;89.65;43.78;;;10.60;99.90;;;10.78;92.54;101786.13;5056718;28;20041;-68
2021/11/17 06:16:30;;;;;;;88.00;43.40;;;10.60;99.90;;;10.57;92.79;101764.72;5056661;28;20045;-68
2021/11/17 06:18:58;;;;;;;86.90;42.85;;;10.50;99.90;;;10.77;92.91;101789.63;5056637;28;20132;-68
2021/11/17 06:21:26;;;;;;;87.40;43.95;;;10.50;99.90;;;10.86;93.05;101782.66;5056494;28;20123;-69
2021/11/17 06:23:58;;;;;;;90.25;44.08;;;10.60;99.90;;;10.85;93.13;101786.19;5056448;28;20045;-69
2021/11/17 06:26:32;;;;;;;85.95;43.75;;;10.60;99.90;;;10.75;92.82;101771.09;5056136;28;20125;-69
2021/11/17 06:29:07;;;;;;;90.35;44.95;;;10.60;99.90;;;10.88;93.01;101782.66;5056141;28;20033;-69
2021/11/17 06:31:39;;;;;;;84.75;41.13;;;10.70;99.90;;;10.88;92.93;101788.84;5055083;28;20140;-69
2021/11/17 06:34:30;;;;;;;82.95;41.40;;;10.70;99.90;;;10.81;93.03;101781.75;5056564;28;20041;-69
2021/11/17 06:36:59;;;;;;;;;;;10.70;99.90;;;10.93;93.08;101799.50;5056768;28;20490;-69
2021/11/17 06:39:29;;;;;;;87.13;41.70;;;10.70;99.90;;;10.97;92.83;101798.66;5055813;28;19921;-69
2021/11/17 06:42:02;;;;;;;85.25;42.97;;;10.80;99.90;;;10.90;93.53;101805.63;5055681;28;20141;-68
2021/11/17 06:44:31;;;;;;;94.78;44.47;;;10.70;99.90;;;10.81;93.54;101786.13;5055751;28;20045;-68
2021/11/17 06:47:00;;;;;;;91.20;43.92;;;10.70;99.90;;;10.88;93.51;101799.44;5055733;28;20102;-68
2021/11/17 06:49:28;;;;;;;87.68;44.08;;;10.70;99.90;;;10.47;93.71;101715.28;5055749;28;20045;-69
2021/11/17 06:51:57;;;;;;;88.57;44.40;;;10.70;99.90;;;10.94;94.00;101803.91;5071134;28;20569;-68
2021/11/17 06:54:25;;;;;;;91.30;43.58;;;10.70;99.90;;;10.93;94.03;101806.53;5055720;28;20102;-69
2021/11/17 06:56:54;;;;;;;94.13;44.88;;;10.70;99.90;;;10.93;94.22;101806.53;5055748;28;20399;-69
2021/11/17 06:59:24;;;;;;;89.97;44.67;;;10.70;99.90;;;10.96;94.42;101817.13;5055769;28;20045;-69
2021/11/17 07:01:52;;;;;;;89.22;44.55;;;10.70;99.90;;;10.96;94.31;101823.34;5055403;28;20041;-69
2021/11/17 07:04:21;;;;;;;91.38;44.17;;;10.70;99.90;;;11.02;94.39;101828.69;5055333;28;20436;-69
2021/11/17 07:06:50;;;;;;;86.82;45.22;;;10.70;99.90;;;11.07;94.13;101826.09;5055247;28;20136;-69
2021/11/17 07:09:18;;;;;;;88.70;45.95;;;10.80;99.90;;;11.12;94.25;101832.31;5071022;28;20102;-69
2021/11/17 07:11:47;;;;;;;89.88;44.40;;;10.80;99.90;;;11.10;94.02;101842.00;5055279;28;20041;-69
2021/11/17 07:14:16;;;;;;;86.32;45.88;;;10.80;99.90;;;11.11;94.38;101839.34;5055093;28;20053;-69
2021/11/17 07:16:46;;;;;;;87.68;43.80;;;10.80;99.90;;;11.13;94.41;101842.03;5055119;28;20044;-69
2021/11/17 07:19:14;;;;;;;93.93;45.10;;;10.90;99.90;;;11.03;94.31;101837.53;5055423;28;20052;-70
2021/11/17 07:21:45;;;;;;;90.97;45.40;;;10.90;99.90;;;11.16;94.63;101848.25;5055074;28;20448;-69
2021/11/17 07:24:13;;;;;;;;;;;10.90;99.90;;;11.19;94.34;101835.00;5055870;28;20041;-69
2021/11/17 07:26:41;;;;;;;84.05;43.63;;;10.90;99.90;;;11.18;94.50;101846.50;5070608;28;20015;-69
2021/11/17 07:29:10;;;;;;;90.25;44.28;;;11.00;99.90;;;11.27;94.50;101838.63;5054842;28;20044;-68
2021/11/17 07:31:38;;;;;;;87.90;43.63;;;11.00;99.90;;;11.30;94.52;101840.41;5054914;28;20041;-69
2021/11/17 07:34:08;;;;;;;81.25;42.97;;;11.00;99.90;;;11.27;94.23;101820.06;5070551;28;20052;-69
2021/11/17 07:36:36;;;;;;;87.13;42.92;;;11.10;99.90;;;11.35;93.89;101852.81;5055000;28;20124;-68
2021/11/17 07:39:06;;;;;;;79.38;42.17;;;11.10;99.90;;;11.32;93.95;101833.38;5054966;28;20045;-69
2021/11/17 07:41:35;;;;;;;87.70;43.92;;;11.20;99.90;;;11.46;93.80;101856.44;5054510;28;20083;-67
2021/11/17 07:44:04;;;;;;;83.47;43.75;;;11.20;99.90;;;11.50;93.70;101852.03;5055140;28;20068;-69
2021/11/17 07:46:32;;;;;;;78.80;42.67;;;11.20;99.90;;;11.50;93.61;101858.22;5054949;28;20049;-68
2021/11/17 07:49:01;;;;;;;82.38;43.30;;;11.30;99.90;;;11.53;93.78;101855.63;5054813;28;20041;-69
2021/11/17 07:51:31;;;;;;;82.57;42.08;;;11.20;99.90;;;11.55;93.86;101860.94;5055037;28;20097;-69
2021/11/17 07:54:00;;;;;;;86.22;44.17;;;11.30;99.90;;;11.60;93.75;101867.13;5054953;28;20049;-69
2021/11/17 07:56:28;;;;;;;83.18;43.92;;;11.40;99.90;;;11.62;93.72;101868.03;5054414;28;20044;-69
2021/11/17 07:58:57;;;;;;;85.80;45.33;;;11.40;99.90;;;11.61;93.74;101876.88;5070058;28;20041;-68
2021/11/17 08:01:25;;;;;;;84.00;43.45;;;11.40;99.90;;;11.59;93.87;101874.19;5054172;28;20486;-68
2021/11/17 08:03:54;;;;;;;80.13;43.00;;;11.40;99.90;;;11.63;94.05;101893.66;5054597;28;20051;-68
2021/11/17 08:06:26;;;;;;;79.28;42.33;;;11.40;99.90;;;11.44;93.77;101866.13;5054165;28;20049;-69
2021/11/17 08:08:56;;;;;;;87.88;46.10;;;11.40;99.90;;;11.71;93.79;101894.66;5054218;28;20043;-69
2021/11/17 08:11:25;;;;;;;74.80;41.38;;;11.40;99.90;;;11.59;93.62;101873.31;5054153;28;20049;-69
2021/11/17 08:13:54;;;;;;;78.10;43.05;;;11.40;99.90;;;11.64;93.60;101864.53;5054158;28;20060;-69
2021/11/17 08:16:22;;;;;;;79.47;43.40;;;11.50;99.90;;;11.76;93.69;101885.84;5053980;28;20118;-68
2021/11/17 08:18:51;;;;;;;78.78;43.47;;;11.50;99.90;;;11.77;94.00;101890.25;5053951;28;20475;-69
2021/11/17 08:21:20;;;;;;;79.20;41.90;;;11.60;99.90;;;11.73;93.77;101866.38;5053897;28;20099;-69
2021/11/17 08:23:48;;;;;;;78.85;43.30;;;11.60;99.90;;;11.86;93.71;101893.84;5052756;28;20132;-69
2021/11/17 08:26:22;;;;;;;77.32;42.20;;;11.60;99.90;;;11.79;93.55;101875.25;5052679;28;20482;-69
2021/11/17 08:28:51;;;;;;;75.15;41.63;;;11.60;99.90;;;11.83;93.64;101881.47;5053754;28;20136;-69
2021/11/17 08:31:24;;;;;;;78.07;43.38;;;11.60;99.90;;;11.98;93.75;101893.94;5053719;28;20041;-69
2021/11/17 08:33:54;;;;;;;81.55;42.17;;;11.70;99.90;;;11.80;93.53;101884.09;5053588;28;20037;-69
2021/11/17 08:36:24;;;;;;;74.90;41.72;;;11.70;99.90;;;11.99;93.67;101893.06;5054155;28;20041;-70
2021/11/17 08:38:54;;;;;;;75.47;41.85;;;11.70;99.90;;;12.06;93.43;101889.59;5053560;28;20110;-70
2021/11/17 08:41:26;;;;;;;74.45;41.70;;;11.80;99.90;;;12.17;93.56;101896.72;5053518;28;20398;-71
2021/11/17 08:43:55;;;;;;;75.10;40.58;;;11.90;99.90;;;12.21;93.17;101901.16;5053560;28;20098;-69
2021/11/17 08:46:26;;;;;;;76.82;42.35;;;12.00;99.90;;;12.19;93.02;101897.63;5053789;28;20049;-70
2021/11/17 08:48:56;;;;;;;;;;;12.00;99.90;;;12.34;92.68;101918.91;5053894;28;20045;-70
2021/11/17 08:51:30;;;;;;;69.43;39.25;;;12.10;99.90;;;11.15;92.53;101721.13;5052483;28;20011;-68
2021/11/17 08:54:00;;;;;;;76.70;40.47;;;12.20;99.90;;;12.52;92.20;101924.28;5069119;28;20490;-69
2021/11/17 08:56:31;;;;;;;65.72;36.88;;;12.30;99.90;;;12.58;91.95;101920.81;5053397;28;20044;-70
2021/11/17 08:58:59;;;;;;;61.42;34.53;;;12.30;99.90;;;12.56;92.01;101909.28;5068724;28;20061;-70
2021/11/17 09:01:29;;;;;;;59.38;34.05;;;12.40;99.90;;;12.70;91.72;101923.47;5053253;28;20116;-67
2021/11/17 09:03:58;;;;;;;61.42;34.70;;;12.40;99.90;;;12.76;91.78;101923.50;5053220;28;20546;-69
2021/11/17 09:06:27;;;;;;;56.55;31.98;;;12.50;99.90;;;12.76;92.04;101920.84;5053313;28;20455;-70
2021/11/17 09:08:55;;;;;;;54.17;30.23;;;12.60;99.90;;;12.87;92.35;101924.47;5052966;28;20091;-70
2021/11/17 09:11:23;;;;;;;52.25;25.50;;;12.70;99.90;;;12.84;92.35;101916.47;5053541;28;20137;-70
2021/11/17 09:13:53;;;;;;;35.38;20.15;;;12.70;99.90;;;12.99;92.05;101932.44;5053038;28;20041;-67
2021/11/17 09:16:22;;;;;;;32.57;14.03;;;12.80;99.90;;;12.86;92.39;101929.72;5053034;28;20099;-67
2021/11/17 09:18:52;;;;;;;20.02;9.50;;;12.70;99.90;;;12.80;93.10;101929.72;5052949;28;20449;-66
2021/11/17 09:21:21;;;;;;;;;;;12.60;99.90;;;12.68;93.51;101927.91;5053405;28;20123;-67
2021/11/17 09:23:49;;;;;;;19.58;7.25;;;12.50;99.90;;;12.63;93.98;101942.94;5053483;28;19955;-68
2021/11/17 09:26:22;;;;;;;18.27;7.55;;;12.40;99.90;;;12.66;93.85;101916.38;5052993;28;20041;-67
2021/11/17 09:28:53;;;;;;;27.13;7.53;;;12.50;99.90;;;12.66;93.35;101941.16;5052920;28;20056;-67
2021/11/17 09:31:23;;;;;;;20.02;7.85;;;12.50;99.90;;;12.71;93.06;101941.22;5052510;28;20057;-67
2021/11/17 09:33:53;;;;;;;24.90;7.20;;;12.50;99.90;;;12.71;92.63;101943.84;5053046;28;20044;-67
2021/11/17 09:36:25;;;;;;;21.48;7.50;;;12.50;99.90;;;12.78;92.44;101937.69;5053208;28;20077;-69
2021/11/17 09:38:55;;;;;;;14.98;6.90;;;12.60;99.90;;;12.04;92.25;101809.13;5057236;28;20139;-68
2021/11/17 09:41:30;;;;;;;20.90;7.22;;;12.60;99.90;;;12.78;91.55;101953.59;5056873;28;20486;-71
2021/11/17 09:44:04;;;;;;;21.95;7.70;;;12.60;99.90;;;12.82;91.12;101938.56;5056871;28;20052;-69
2021/11/17 09:46:36;;;;;;;18.35;7.22;;;12.60;99.90;;;12.76;90.67;101962.44;5057275;28;20052;-69
2021/11/17 09:49:08;;;;;;;22.80;6.38;;;12.60;99.90;;;12.75;89.89;101964.22;5057378;28;20041;-71
2021/11/17 09:51:47;;;;;;;19.35;6.65;;;12.60;99.90;;;12.70;89.60;101964.19;5057055;28;20049;-70
2021/11/17 09:54:24;;;;;;;18.33;6.28;;;12.60;99.90;;;12.77;89.23;101972.19;5056794;28;20045;-70
2021/11/17 09:56:57;;;;;;;21.85;6.43;;;12.60;99.90;;;12.77;88.75;101969.53;5056962;28;20056;-71
2021/11/17 09:59:33;;;;;;;24.00;6.65;;;12.60;99.90;;;12.62;89.21;101930.53;5056656;28;20091;-70
2021/11/17 10:02:09;;;;;;;22.52;6.78;;;12.70;99.90;;;12.99;88.85;101963.44;5056841;28;20091;-70
2021/11/17 10:04:52;;;;;;;16.38;6.22;;;12.80;99.90;;;13.08;88.18;101969.72;5057093;28;20047;-69
2021/11/17 10:13:25;;;;;;;19.52;6.35;;;12.90;99.90;;;12.96;86.10;101959.00;5056754;28;20071;-70
2021/11/17 10:15:57;;;;;;;21.77;6.38;;;12.90;99.90;;;12.96;85.60;101972.28;5056352;28;20041;-71
2021/11/17 10:18:46;;;;;;;25.80;6.95;;;12.90;99.90;;;13.18;84.77;101984.75;5056391;28;20041;-71
2021/11/17 10:21:31;;;;;;;22.42;6.18;;;13.00;99.90;;;13.49;84.67;101999.91;5056283;28;20552;-71
2021/11/17 10:24:05;;;;;;;25.90;7.43;;;13.20;99.90;;;13.93;83.67;101996.41;5055266;28;20045;-71
2021/11/17 10:26:46;;;;;;;29.67;6.68;;;13.60;99.90;;;14.20;81.98;102001.72;5056219;28;20091;-71
2021/11/17 10:29:31;;;;;;;29.08;7.03;;;13.90;99.90;;;14.20;79.48;101983.06;5056611;28;20072;-71
2021/11/17 10:32:13;;;;;;;30.08;7.60;;;14.10;99.90;;;14.15;78.33;102009.69;5056075;28;20167;-75
2021/11/17 10:34:52;;;;;;;28.98;6.93;;;14.10;99.90;;;12.98;77.50;101840.38;5055945;28;20430;-70
2021/11/17 10:37:32;;;;;;;35.95;7.93;;;13.90;99.90;;;13.72;77.42;102009.69;5071503;28;20048;-70
2021/11/17 10:40:11;;;;;;;27.35;7.60;;;13.60;99.90;;;13.63;76.37;102009.69;5055885;28;20049;-70
2021/11/17 10:42:41;;;;;;;28.58;7.25;;;13.50;99.90;;;13.73;76.91;102015.00;5055781;28;20048;-69
2021/11/17 10:45:29;;;;;;;35.65;7.07;;;13.50;99.90;;;13.85;76.61;102012.38;5055526;28;20065;-69
2021/11/17 10:48:00;;;;;;;22.70;7.60;;;13.70;99.90;;;14.07;76.60;102024.75;5055848;28;20053;-69
2021/11/17 10:50:33;;;;;;;27.77;7.90;;;13.80;99.90;;;14.16;75.36;102021.22;5055883;28;20441;-69
2021/11/17 10:53:07;;;;;;;28.23;6.95;;;13.90;99.90;;;14.19;74.45;102015.88;5055837;28;20036;-69
2021/11/17 10:55:41;;;;;;;29.30;6.50;;;14.00;99.90;;;14.25;73.80;102018.53;5055593;28;20179;-68
2021/11/17 10:58:14;;;;;;;26.73;7.32;;;14.10;99.90;;;14.41;73.48;102023.91;5055452;28;20041;-70
2021/11/17 11:00:46;;;;;;;30.17;7.07;;;14.20;99.90;;;14.56;72.84;102022.06;5055437;28;20048;-69
2021/11/17 11:03:21;;;;;;;26.70;6.75;;;14.40;99.90;;;14.55;72.41;102030.97;5055534;28;20440;-76
2021/11/17 11:05:52;;;;;;;28.25;7.22;;;14.40;99.90;;;14.52;72.63;102021.19;5055663;28;20041;-71
2021/11/17 11:08:33;;;;;;;25.25;7.43;;;14.40;99.90;;;14.51;72.71;102032.75;5055015;28;20052;-68
2021/11/17 11:11:03;;;;;;;;;;;14.30;99.90;;;14.37;72.61;102029.22;5056181;28;20045;-71
2021/11/17 11:13:37;;;;;;;29.08;7.28;;;14.30;99.90;;;14.37;72.59;102024.78;5054263;28;20548;-71
2021/11/17 11:16:14;;;;;;;24.33;7.30;;;14.20;99.90;;;13.99;73.10;102029.22;5055248;28;20044;-71
2021/11/17 11:18:54;;;;;;;25.02;6.88;;;13.90;99.90;;;13.93;73.54;102030.97;5055267;28;20052;-71
2021/11/17 11:22:05;;;;;;;26.75;7.43;;;13.80;99.90;;;13.85;74.77;102023.00;5055383;28;20057;-71
2021/11/17 11:24:37;;;;;;;24.17;6.20;;;13.70;99.90;;;13.77;74.75;102026.53;5055465;28;20079;-71
2021/11/17 11:27:29;;;;;;;27.55;7.05;;;13.70;99.90;;;13.66;75.03;101985.75;5054023;28;20057;-71
2021/11/17 11:30:46;;;;;;;24.73;7.03;;;13.70;99.90;;;13.82;74.52;102008.81;5055304;28;20048;-71
2021/11/17 11:33:31;;;;;;;18.65;5.57;;;13.70;99.90;;;13.62;74.31;102021.19;5054954;28;20396;-71
2021/11/17 11:36:43;;;;;;;23.50;7.28;;;13.50;99.90;;;13.62;75.27;102013.22;5055132;28;20513;-71
2021/11/17 11:39:47;;;;;;;22.30;6.55;;;13.40;99.90;;;13.56;74.57;102020.31;5053786;28;20131;-73
2021/11/17 11:43:22;;;;;;;22.25;6.38;;;13.40;99.90;;;13.54;73.84;102023.84;5033174;28;20087;-72
2021/11/17 11:45:54;;;;;;;27.27;7.30;;;13.30;99.90;;;13.50;74.09;102030.94;5030401;28;20460;-72
2021/11/17 11:49:08;;;;;;;22.30;6.85;;;13.40;99.90;;;13.46;73.79;102013.19;5054626;28;20045;-70
2021/11/17 11:52:14;;;;;;;16.73;6.00;;;13.40;99.90;;;13.63;73.14;102028.31;5012913;28;20056;-70
2021/11/17 11:55:25;;;;;;;21.60;6.07;;;13.40;99.90;;;13.79;72.25;102030.06;5012684;28;20049;-73
2021/11/17 11:58:31;;;;;;;23.13;6.47;;;13.60;99.90;;;13.89;73.13;102045.16;5039601;28;20053;-72
2021/11/17 12:01:05;;;;;;;20.88;6.80;;;13.70;99.90;;;13.91;72.95;102036.31;5053649;28;20525;-70
2021/11/17 12:03:37;;;;;;;24.65;6.55;;;13.70;99.90;;;13.32;72.95;101927.22;5054313;28;20102;-70
2021/11/17 12:06:12;;;;;;;22.77;5.93;;;13.70;99.90;;;13.92;73.17;102047.81;5054175;28;20126;-70
2021/11/17 12:08:48;;;;;;;27.42;6.63;;;13.80;99.90;;;13.66;73.59;102044.25;5054903;28;20045;-69
2021/11/17 12:11:21;;;;;;;24.80;7.65;;;13.60;99.90;;;13.33;74.38;102008.75;5054270;28;20099;-70
2021/11/17 12:14:02;;;;;;;23.27;6.90;;;13.40;99.90;;;13.52;74.87;102042.44;5054832;28;20052;-70
2021/11/17 12:16:36;;;;;;;27.02;6.82;;;13.50;99.90;;;13.77;73.79;102053.13;5054429;28;20457;-69
2021/11/17 12:19:14;;;;;;;25.80;6.70;;;13.60;99.90;;;13.58;73.84;102057.53;5054027;28;20051;-70
2021/11/17 12:21:56;;;;;;;27.40;6.95;;;13.50;99.90;;;13.63;73.91;102060.22;5054010;28;20102;-70
2021/11/17 12:24:31;;;;;;;24.48;6.93;;;13.40;99.90;;;13.41;73.74;102035.34;5053838;28;20052;-69
2021/11/17 12:27:05;;;;;;;22.33;6.57;;;13.40;99.90;;;13.56;73.55;102065.50;5053821;28;20041;-68
2021/11/17 12:29:52;;;;;;;27.55;7.22;;;13.40;99.90;;;13.62;73.89;102067.28;5069295;28;20052;-68
2021/11/17 12:32:28;;;;;;;24.70;6.25;;;13.40;99.90;;;13.62;73.89;102069.94;5053665;28;20033;-68
2021/11/17 12:35:20;;;;;;;27.38;7.15;;;13.40;99.90;;;13.71;73.63;102077.03;5053757;28;20056;-69
2021/11/17 12:37:53;;;;;;;23.30;7.25;;;13.50;99.90;;;13.46;74.22;102084.97;5053684;28;20441;-71
2021/11/17 12:40:41;;;;;;;29.60;7.00;;;13.30;99.90;;;13.37;74.29;102076.06;5053254;28;20063;-69
2021/11/17 12:43:13;;;;;;;23.83;6.60;;;13.20;99.90;;;13.41;74.32;102076.06;5053541;28;20434;-71
2021/11/17 12:45:49;;;;;;;25.52;7.20;;;13.20;99.90;;;13.29;73.92;102080.47;5053463;28;20057;-70
2021/11/17 12:48:27;;;;;;;28.55;6.57;;;13.10;99.90;;;13.23;73.90;102081.34;5053503;28;20135;-70
2021/11/17 12:51:03;;;;;;;30.05;7.60;;;13.10;99.90;;;13.15;74.23;102071.53;5053342;28;20044;-70
2021/11/17 12:53:37;;;;;;;33.80;7.15;;;13.00;99.90;;;13.03;75.28;102069.72;5053425;28;20391;-70
2021/11/17 12:56:20;;;;;;;26.52;6.97;;;12.90;99.90;;;13.01;75.04;102046.63;5053657;28;20045;-70
2021/11/17 12:58:55;;;;;;;26.67;7.05;;;12.90;99.90;;;13.13;75.18;102063.56;5053562;28;20449;-69
2021/11/17 13:01:37;;;;;;;30.38;7.07;;;12.90;99.90;;;13.24;74.98;102076.91;5052253;28;20545;-69
2021/11/17 13:04:21;;;;;;;25.65;7.32;;;13.00;99.90;;;13.44;75.09;102088.50;5052963;28;20040;-69
2021/11/17 13:06:54;;;;;;;36.80;7.28;;;13.20;99.90;;;13.51;74.74;102053.09;5053124;28;20045;-69
2021/11/17 13:09:27;;;;;;;25.52;7.38;;;13.40;99.90;;;13.80;73.80;102093.03;5052950;28;20478;-69
2021/11/17 13:12:17;;;;;;;25.60;7.90;;;13.60;99.90;;;13.83;73.71;102091.25;5053244;28;20045;-69
2021/11/17 13:14:59;;;;;;;26.10;6.93;;;13.60;99.90;;;13.72;73.22;102093.03;5053498;28;20037;-69
2021/11/17 13:17:42;;;;;;;27.60;6.93;;;13.60;99.90;;;13.66;73.27;102092.09;5052903;28;20491;-69
2021/11/17 13:20:29;;;;;;;34.45;8.50;;;13.50;99.90;;;13.53;73.45;102100.03;5053042;28;20544;-70
2021/11/17 13:23:33;;;;;;;26.95;7.25;;;13.40;99.90;;;13.53;73.28;102097.38;5053415;28;20102;-70
2021/11/17 13:26:29;;;;;;;24.88;7.25;;;13.30;99.90;;;13.42;72.60;102104.44;5053415;28;20091;-69
2021/11/17 13:29:27;;;;;;;23.10;6.55;;;13.30;99.90;;;13.52;72.49;102105.34;5068515;28;20517;-69
2021/11/17 13:32:21;;;;;;;30.40;7.75;;;13.30;99.90;;;13.44;72.54;102097.34;5053068;28;20041;-70
2021/11/17 13:34:53;;;;;;;23.08;6.63;;;13.20;99.90;;;13.44;72.26;102089.38;5053574;28;20040;-69
2021/11/17 13:37:26;;;;;;;22.15;6.70;;;13.30;99.90;;;13.41;71.28;102075.19;5053160;28;20082;-69